Katterjakk, Sweden

2:19 AM CEST on July 25, 2016 (GMT +0200)
Solpiggen | | Change Station

Elev 1623 ft 68.43 °N, 18.12 °E | Updated 9 seconds ago

Overcast
Overcast
54.3 °F
Feels Like 54.3 °F
N
9.8
Wind Variable Wind from NW
Gusts 10.7 mph

Today
High -- | Low -- °F
--% Chance of Precip.
Yesterday
High -- | Low -- °F
Precip. -- in
Pressure 30.12 in
Visibility 6.2 miles
Clouds Overcast 1400 ft
Dew Point -1 °F
Humidity 10%
Rainfall 0.00 in
Snow Depth Not available.
2:12 AM 11:29 PM
Waning Gibbous, 72% visible
METAR ENEV 242350Z AUTO 36006KT 9999NDV OVC014/// 12/12 Q1020 RMK WIND 1400FT 01015KT
Pressure 30.12 in
Visibility 6.2 miles
Clouds Overcast 1400 ft
Dew Point -1 °F
Humidity 10%
Rainfall 0.00 in
Snow Depth Not available.
2:12 AM 11:29 PM
Waning Gibbous, 72% visible
METAR ENEV 242350Z AUTO 36006KT 9999NDV OVC014/// 12/12 Q1020 RMK WIND 1400FT 01015KT

10-Day Weather Forecast

×

Almanac

Astronomy

Jul. 25, 2016 Rise Set
Actual Time
Civil Twilight
Nautical Twilight
Astronomical Twilight
Moon
Length of Visible Light
Length of Day
Tomorrow will be .
, % of the Moon is Illuminated

Today's Extremes

Country Highs Country Lows

Community

WunderPhotos

Upload Photos

1,927,211 photos uploaded!

WunderBlog® & News

Nearby

Air Quality

  Air Quality AQ Index Pollutant
Not available.

Snow Depth

Station Depth Elevation

Earthquake Activity

City Distance Mag. Time & Date
Minimum magnitude displayed is 2.5.

Coastal Water Temperatures

Place Temperature

Stations

Nearby Weather Stations

Station Location Temp. Windchill Dew Point Humidity Wind Precip. Elev Updated Type